sensor_id;sensor_type;location;lat;lon;timestamp;P1;durP1;ratioP1;P2;durP2;ratioP2
18206;SDS011;9229;52.354;20.886;2022-09-09T00:04:27;11.80;;;6.10;;
18206;SDS011;9229;52.354;20.886;2022-09-09T00:09:31;13.45;;;6.28;;
18206;SDS011;9229;52.354;20.886;2022-09-09T00:14:42;12.35;;;5.88;;
18206;SDS011;9229;52.354;20.886;2022-09-09T00:19:53;9.55;;;6.22;;
18206;SDS011;9229;52.354;20.886;2022-09-09T00:25:00;12.13;;;5.43;;
18206;SDS011;9229;52.354;20.886;2022-09-09T00:30:15;11.98;;;6.30;;
18206;SDS011;9229;52.354;20.886;2022-09-09T00:35:22;12.18;;;6.80;;
18206;SDS011;9229;52.354;20.886;2022-09-09T00:40:27;13.38;;;6.32;;
18206;SDS011;9229;52.354;20.886;2022-09-09T00:45:37;10.02;;;6.53;;
18206;SDS011;9229;52.354;20.886;2022-09-09T00:51:01;8.73;;;6.95;;
18206;SDS011;9229;52.354;20.886;2022-09-09T00:56:12;8.70;;;6.03;;
18206;SDS011;9229;52.354;20.886;2022-09-09T01:01:16;9.45;;;6.43;;
18206;SDS011;9229;52.354;20.886;2022-09-09T01:06:21;10.88;;;6.78;;
18206;SDS011;9229;52.354;20.886;2022-09-09T01:11:32;10.55;;;6.95;;
18206;SDS011;9229;52.354;20.886;2022-09-09T01:16:43;12.02;;;6.93;;
18206;SDS011;9229;52.354;20.886;2022-09-09T01:21:50;11.77;;;6.80;;
18206;SDS011;9229;52.354;20.886;2022-09-09T01:27:04;9.57;;;7.45;;
18206;SDS011;9229;52.354;20.886;2022-09-09T01:37:39;11.30;;;7.05;;
18206;SDS011;9229;52.354;20.886;2022-09-09T01:42:43;11.48;;;7.47;;
18206;SDS011;9229;52.354;20.886;2022-09-09T01:47:45;9.70;;;6.45;;
18206;SDS011;9229;52.354;20.886;2022-09-09T01:52:54;10.32;;;7.35;;
18206;SDS011;9229;52.354;20.886;2022-09-09T01:58:06;11.73;;;7.18;;
18206;SDS011;9229;52.354;20.886;2022-09-09T02:03:24;12.02;;;7.68;;
18206;SDS011;9229;52.354;20.886;2022-09-09T02:08:42;12.35;;;7.35;;
18206;SDS011;9229;52.354;20.886;2022-09-09T02:13:51;12.02;;;7.22;;
18206;SDS011;9229;52.354;20.886;2022-09-09T02:18:57;10.55;;;7.63;;
18206;SDS011;9229;52.354;20.886;2022-09-09T02:24:14;12.57;;;7.93;;
18206;SDS011;9229;52.354;20.886;2022-09-09T02:29:26;11.30;;;8.05;;
18206;SDS011;9229;52.354;20.886;2022-09-09T02:34:33;15.50;;;7.97;;
18206;SDS011;9229;52.354;20.886;2022-09-09T02:39:40;14.07;;;8.60;;
18206;SDS011;9229;52.354;20.886;2022-09-09T02:44:48;13.80;;;8.93;;
18206;SDS011;9229;52.354;20.886;2022-09-09T02:49:54;15.38;;;8.32;;
18206;SDS011;9229;52.354;20.886;2022-09-09T02:55:07;14.52;;;8.80;;
18206;SDS011;9229;52.354;20.886;2022-09-09T03:00:25;14.60;;;8.82;;
18206;SDS011;9229;52.354;20.886;2022-09-09T03:05:33;15.27;;;9.52;;
18206;SDS011;9229;52.354;20.886;2022-09-09T03:10:36;13.75;;;8.40;;
18206;SDS011;9229;52.354;20.886;2022-09-09T03:15:39;15.00;;;9.60;;
18206;SDS011;9229;52.354;20.886;2022-09-09T03:20:45;14.10;;;8.88;;
18206;SDS011;9229;52.354;20.886;2022-09-09T03:25:50;18.73;;;9.60;;
18206;SDS011;9229;52.354;20.886;2022-09-09T03:31:00;16.40;;;9.35;;
18206;SDS011;9229;52.354;20.886;2022-09-09T03:36:08;13.85;;;9.05;;
18206;SDS011;9229;52.354;20.886;2022-09-09T03:41:11;15.80;;;8.73;;
18206;SDS011;9229;52.354;20.886;2022-09-09T03:46:14;14.55;;;9.27;;
18206;SDS011;9229;52.354;20.886;2022-09-09T03:51:16;13.25;;;8.35;;
18206;SDS011;9229;52.354;20.886;2022-09-09T03:56:18;14.48;;;9.10;;
18206;SDS011;9229;52.354;20.886;2022-09-09T04:01:23;15.50;;;8.43;;
18206;SDS011;9229;52.354;20.886;2022-09-09T04:06:25;17.58;;;9.15;;
18206;SDS011;9229;52.354;20.886;2022-09-09T04:11:27;9.18;;;7.50;;
18206;SDS011;9229;52.354;20.886;2022-09-09T04:16:33;12.85;;;8.43;;
18206;SDS011;9229;52.354;20.886;2022-09-09T04:21:38;13.93;;;8.10;;
18206;SDS011;9229;52.354;20.886;2022-09-09T04:26:42;12.25;;;7.82;;
18206;SDS011;9229;52.354;20.886;2022-09-09T04:31:48;11.57;;;7.85;;
18206;SDS011;9229;52.354;20.886;2022-09-09T04:36:50;14.20;;;7.75;;
18206;SDS011;9229;52.354;20.886;2022-09-09T04:41:53;14.27;;;7.90;;
18206;SDS011;9229;52.354;20.886;2022-09-09T04:46:58;12.98;;;8.60;;
18206;SDS011;9229;52.354;20.886;2022-09-09T04:52:00;12.77;;;7.68;;
18206;SDS011;9229;52.354;20.886;2022-09-09T04:57:02;13.20;;;8.27;;
18206;SDS011;9229;52.354;20.886;2022-09-09T05:02:06;10.15;;;7.65;;
18206;SDS011;9229;52.354;20.886;2022-09-09T05:07:08;9.68;;;6.88;;
18206;SDS011;9229;52.354;20.886;2022-09-09T05:12:11;7.93;;;7.00;;
18206;SDS011;9229;52.354;20.886;2022-09-09T05:17:22;10.60;;;7.80;;
18206;SDS011;9229;52.354;20.886;2022-09-09T05:22:24;8.10;;;7.13;;
18206;SDS011;9229;52.354;20.886;2022-09-09T05:27:27;7.75;;;6.70;;
18206;SDS011;9229;52.354;20.886;2022-09-09T05:32:34;11.00;;;7.38;;
18206;SDS011;9229;52.354;20.886;2022-09-09T05:37:37;7.80;;;6.70;;
18206;SDS011;9229;52.354;20.886;2022-09-09T05:42:40;7.28;;;6.50;;
18206;SDS011;9229;52.354;20.886;2022-09-09T05:47:44;9.32;;;6.68;;
18206;SDS011;9229;52.354;20.886;2022-09-09T05:52:54;6.30;;;5.80;;
18206;SDS011;9229;52.354;20.886;2022-09-09T05:57:58;7.55;;;6.20;;
18206;SDS011;9229;52.354;20.886;2022-09-09T06:03:03;7.18;;;6.47;;
18206;SDS011;9229;52.354;20.886;2022-09-09T06:08:05;7.97;;;7.18;;
18206;SDS011;9229;52.354;20.886;2022-09-09T06:13:08;10.68;;;6.80;;
18206;SDS011;9229;52.354;20.886;2022-09-09T06:18:12;7.15;;;5.90;;
18206;SDS011;9229;52.354;20.886;2022-09-09T06:23:14;9.70;;;6.65;;
18206;SDS011;9229;52.354;20.886;2022-09-09T06:28:15;7.85;;;6.50;;
18206;SDS011;9229;52.354;20.886;2022-09-09T06:33:19;6.10;;;5.63;;
18206;SDS011;9229;52.354;20.886;2022-09-09T06:38:22;6.70;;;6.13;;
18206;SDS011;9229;52.354;20.886;2022-09-09T06:43:24;8.55;;;7.03;;
18206;SDS011;9229;52.354;20.886;2022-09-09T06:48:30;6.90;;;6.30;;
18206;SDS011;9229;52.354;20.886;2022-09-09T06:53:34;7.07;;;6.40;;
18206;SDS011;9229;52.354;20.886;2022-09-09T06:58:38;13.88;;;7.20;;
18206;SDS011;9229;52.354;20.886;2022-09-09T07:03:48;8.18;;;5.97;;
18206;SDS011;9229;52.354;20.886;2022-09-09T07:08:52;10.63;;;6.07;;
18206;SDS011;9229;52.354;20.886;2022-09-09T07:13:58;6.78;;;6.13;;
18206;SDS011;9229;52.354;20.886;2022-09-09T07:19:03;7.07;;;6.38;;
18206;SDS011;9229;52.354;20.886;2022-09-09T07:24:05;7.53;;;6.28;;
18206;SDS011;9229;52.354;20.886;2022-09-09T07:29:12;10.18;;;6.28;;
18206;SDS011;9229;52.354;20.886;2022-09-09T07:34:17;10.40;;;7.32;;
18206;SDS011;9229;52.354;20.886;2022-09-09T07:39:19;11.38;;;7.38;;
18206;SDS011;9229;52.354;20.886;2022-09-09T07:44:26;11.52;;;7.55;;
18206;SDS011;9229;52.354;20.886;2022-09-09T07:49:40;15.32;;;8.30;;
18206;SDS011;9229;52.354;20.886;2022-09-09T07:54:43;10.93;;;8.38;;
18206;SDS011;9229;52.354;20.886;2022-09-09T07:59:47;11.48;;;8.50;;
18206;SDS011;9229;52.354;20.886;2022-09-09T08:04:50;10.60;;;8.57;;
18206;SDS011;9229;52.354;20.886;2022-09-09T08:09:54;9.50;;;8.30;;
18206;SDS011;9229;52.354;20.886;2022-09-09T08:15:02;12.13;;;8.95;;
18206;SDS011;9229;52.354;20.886;2022-09-09T08:20:09;11.65;;;9.20;;
18206;SDS011;9229;52.354;20.886;2022-09-09T08:25:12;18.20;;;10.02;;
18206;SDS011;9229;52.354;20.886;2022-09-09T08:30:15;14.40;;;9.82;;
18206;SDS011;9229;52.354;20.886;2022-09-09T08:35:19;14.30;;;9.30;;
18206;SDS011;9229;52.354;20.886;2022-09-09T08:40:22;16.63;;;11.00;;
18206;SDS011;9229;52.354;20.886;2022-09-09T08:45:32;14.48;;;10.80;;
18206;SDS011;9229;52.354;20.886;2022-09-09T08:50:42;14.45;;;10.93;;
18206;SDS011;9229;52.354;20.886;2022-09-09T08:55:51;14.20;;;10.68;;
18206;SDS011;9229;52.354;20.886;2022-09-09T09:01:26;16.25;;;10.85;;
18206;SDS011;9229;52.354;20.886;2022-09-09T09:06:48;17.60;;;11.48;;
18206;SDS011;9229;52.354;20.886;2022-09-09T09:11:57;18.70;;;11.40;;
18206;SDS011;9229;52.354;20.886;2022-09-09T09:17:09;17.55;;;10.70;;
18206;SDS011;9229;52.354;20.886;2022-09-09T09:22:18;20.92;;;12.32;;
18206;SDS011;9229;52.354;20.886;2022-09-09T09:27:27;26.77;;;14.20;;
18206;SDS011;9229;52.354;20.886;2022-09-09T09:32:33;20.00;;;13.20;;
18206;SDS011;9229;52.354;20.886;2022-09-09T09:37:40;20.10;;;13.65;;
18206;SDS011;9229;52.354;20.886;2022-09-09T09:42:48;26.98;;;14.80;;
18206;SDS011;9229;52.354;20.886;2022-09-09T09:47:58;27.45;;;16.65;;
18206;SDS011;9229;52.354;20.886;2022-09-09T09:53:03;28.23;;;15.75;;
18206;SDS011;9229;52.354;20.886;2022-09-09T09:58:13;29.63;;;15.52;;
18206;SDS011;9229;52.354;20.886;2022-09-09T10:03:20;23.45;;;15.52;;
18206;SDS011;9229;52.354;20.886;2022-09-09T10:08:27;31.42;;;15.05;;
18206;SDS011;9229;52.354;20.886;2022-09-09T10:13:31;28.95;;;16.38;;
18206;SDS011;9229;52.354;20.886;2022-09-09T10:18:40;28.80;;;15.93;;
18206;SDS011;9229;52.354;20.886;2022-09-09T10:23:56;34.08;;;16.50;;
18206;SDS011;9229;52.354;20.886;2022-09-09T10:29:18;31.25;;;16.48;;
18206;SDS011;9229;52.354;20.886;2022-09-09T10:34:36;31.50;;;16.65;;
18206;SDS011;9229;52.354;20.886;2022-09-09T10:39:53;30.02;;;15.80;;
18206;SDS011;9229;52.354;20.886;2022-09-09T10:45:07;29.52;;;16.55;;
18206;SDS011;9229;52.354;20.886;2022-09-09T10:50:28;31.08;;;15.32;;
18206;SDS011;9229;52.354;20.886;2022-09-09T10:55:50;28.35;;;17.40;;
18206;SDS011;9229;52.354;20.886;2022-09-09T11:00:55;33.75;;;16.55;;
18206;SDS011;9229;52.354;20.886;2022-09-09T11:06:04;25.75;;;14.55;;
18206;SDS011;9229;52.354;20.886;2022-09-09T11:11:09;29.65;;;15.80;;
18206;SDS011;9229;52.354;20.886;2022-09-09T11:16:20;32.25;;;17.17;;
18206;SDS011;9229;52.354;20.886;2022-09-09T11:21:27;39.13;;;19.00;;
18206;SDS011;9229;52.354;20.886;2022-09-09T11:26:36;28.05;;;16.85;;
18206;SDS011;9229;52.354;20.886;2022-09-09T11:31:44;29.95;;;16.67;;
18206;SDS011;9229;52.354;20.886;2022-09-09T11:36:56;34.08;;;18.70;;
18206;SDS011;9229;52.354;20.886;2022-09-09T11:42:17;39.90;;;19.75;;
18206;SDS011;9229;52.354;20.886;2022-09-09T11:47:22;38.95;;;19.98;;
18206;SDS011;9229;52.354;20.886;2022-09-09T11:52:35;34.15;;;18.15;;
18206;SDS011;9229;52.354;20.886;2022-09-09T11:57:43;41.55;;;19.80;;
18206;SDS011;9229;52.354;20.886;2022-09-09T12:02:48;38.78;;;19.95;;
18206;SDS011;9229;52.354;20.886;2022-09-09T12:07:51;40.88;;;21.48;;
18206;SDS011;9229;52.354;20.886;2022-09-09T12:13:08;40.28;;;21.85;;
18206;SDS011;9229;52.354;20.886;2022-09-09T12:18:18;40.03;;;22.38;;
18206;SDS011;9229;52.354;20.886;2022-09-09T12:23:27;48.08;;;23.13;;
18206;SDS011;9229;52.354;20.886;2022-09-09T12:28:41;45.17;;;22.80;;
18206;SDS011;9229;52.354;20.886;2022-09-09T12:33:50;38.33;;;21.67;;
18206;SDS011;9229;52.354;20.886;2022-09-09T12:38:53;42.58;;;22.02;;
18206;SDS011;9229;52.354;20.886;2022-09-09T12:44:04;43.17;;;21.70;;
18206;SDS011;9229;52.354;20.886;2022-09-09T12:49:20;49.00;;;23.02;;
18206;SDS011;9229;52.354;20.886;2022-09-09T12:54:28;53.95;;;22.50;;
18206;SDS011;9229;52.354;20.886;2022-09-09T12:59:36;47.97;;;22.95;;
18206;SDS011;9229;52.354;20.886;2022-09-09T13:04:39;47.30;;;23.48;;
18206;SDS011;9229;52.354;20.886;2022-09-09T13:09:41;46.33;;;23.77;;
18206;SDS011;9229;52.354;20.886;2022-09-09T13:14:46;47.65;;;22.48;;
18206;SDS011;9229;52.354;20.886;2022-09-09T13:19:49;43.97;;;22.08;;
18206;SDS011;9229;52.354;20.886;2022-09-09T13:25:00;37.30;;;20.20;;
18206;SDS011;9229;52.354;20.886;2022-09-09T13:35:24;47.08;;;21.38;;
18206;SDS011;9229;52.354;20.886;2022-09-09T13:40:26;44.50;;;22.27;;
18206;SDS011;9229;52.354;20.886;2022-09-09T13:45:30;49.90;;;21.08;;
18206;SDS011;9229;52.354;20.886;2022-09-09T13:50:35;48.03;;;21.17;;
18206;SDS011;9229;52.354;20.886;2022-09-09T13:55:37;43.85;;;20.98;;
18206;SDS011;9229;52.354;20.886;2022-09-09T14:00:40;54.90;;;21.50;;
18206;SDS011;9229;52.354;20.886;2022-09-09T14:05:43;44.30;;;20.67;;
18206;SDS011;9229;52.354;20.886;2022-09-09T14:10:46;47.00;;;22.60;;
18206;SDS011;9229;52.354;20.886;2022-09-09T14:15:49;48.60;;;21.15;;
18206;SDS011;9229;52.354;20.886;2022-09-09T14:20:51;51.10;;;21.60;;
18206;SDS011;9229;52.354;20.886;2022-09-09T14:25:53;52.72;;;22.85;;
18206;SDS011;9229;52.354;20.886;2022-09-09T14:30:58;62.05;;;24.02;;
18206;SDS011;9229;52.354;20.886;2022-09-09T14:36:02;49.85;;;22.67;;
18206;SDS011;9229;52.354;20.886;2022-09-09T14:41:05;50.25;;;21.75;;
18206;SDS011;9229;52.354;20.886;2022-09-09T14:46:08;53.25;;;22.17;;
18206;SDS011;9229;52.354;20.886;2022-09-09T14:51:13;53.08;;;21.60;;
18206;SDS011;9229;52.354;20.886;2022-09-09T14:56:17;54.20;;;20.33;;
18206;SDS011;9229;52.354;20.886;2022-09-09T15:01:22;48.92;;;20.80;;
18206;SDS011;9229;52.354;20.886;2022-09-09T15:06:27;49.42;;;23.23;;
18206;SDS011;9229;52.354;20.886;2022-09-09T15:11:34;55.67;;;24.33;;
18206;SDS011;9229;52.354;20.886;2022-09-09T15:16:39;60.65;;;25.48;;
18206;SDS011;9229;52.354;20.886;2022-09-09T15:21:41;51.58;;;24.50;;
18206;SDS011;9229;52.354;20.886;2022-09-09T15:26:43;59.33;;;27.45;;
18206;SDS011;9229;52.354;20.886;2022-09-09T15:31:46;63.10;;;26.40;;
18206;SDS011;9229;52.354;20.886;2022-09-09T15:36:48;44.92;;;19.55;;
18206;SDS011;9229;52.354;20.886;2022-09-09T15:41:50;43.30;;;19.70;;
18206;SDS011;9229;52.354;20.886;2022-09-09T15:46:53;49.47;;;19.42;;
18206;SDS011;9229;52.354;20.886;2022-09-09T15:51:55;46.80;;;20.55;;
18206;SDS011;9229;52.354;20.886;2022-09-09T15:57:01;42.90;;;19.50;;
18206;SDS011;9229;52.354;20.886;2022-09-09T16:02:05;43.97;;;19.92;;
18206;SDS011;9229;52.354;20.886;2022-09-09T16:07:07;46.42;;;21.00;;
18206;SDS011;9229;52.354;20.886;2022-09-09T16:12:09;45.95;;;19.65;;
18206;SDS011;9229;52.354;20.886;2022-09-09T16:17:15;43.22;;;19.50;;
18206;SDS011;9229;52.354;20.886;2022-09-09T16:22:20;47.42;;;20.00;;
18206;SDS011;9229;52.354;20.886;2022-09-09T16:27:24;40.67;;;19.23;;
18206;SDS011;9229;52.354;20.886;2022-09-09T16:32:27;44.05;;;19.42;;
18206;SDS011;9229;52.354;20.886;2022-09-09T16:37:29;47.85;;;20.50;;
18206;SDS011;9229;52.354;20.886;2022-09-09T16:42:34;40.92;;;18.50;;
18206;SDS011;9229;52.354;20.886;2022-09-09T16:47:37;39.55;;;20.05;;
18206;SDS011;9229;52.354;20.886;2022-09-09T16:52:39;51.03;;;20.60;;
18206;SDS011;9229;52.354;20.886;2022-09-09T16:57:41;35.00;;;18.42;;
18206;SDS011;9229;52.354;20.886;2022-09-09T17:02:44;44.40;;;19.90;;
18206;SDS011;9229;52.354;20.886;2022-09-09T17:07:46;41.72;;;18.30;;
18206;SDS011;9229;52.354;20.886;2022-09-09T17:12:48;46.55;;;19.15;;
18206;SDS011;9229;52.354;20.886;2022-09-09T17:17:51;36.35;;;17.75;;
18206;SDS011;9229;52.354;20.886;2022-09-09T17:22:54;34.28;;;18.48;;
18206;SDS011;9229;52.354;20.886;2022-09-09T17:27:57;41.75;;;19.55;;
18206;SDS011;9229;52.354;20.886;2022-09-09T17:33:01;40.47;;;18.67;;
18206;SDS011;9229;52.354;20.886;2022-09-09T17:38:03;41.10;;;19.75;;
18206;SDS011;9229;52.354;20.886;2022-09-09T17:43:05;42.08;;;20.42;;
18206;SDS011;9229;52.354;20.886;2022-09-09T17:48:10;41.35;;;19.73;;
18206;SDS011;9229;52.354;20.886;2022-09-09T17:53:12;43.78;;;19.58;;
18206;SDS011;9229;52.354;20.886;2022-09-09T17:58:13;38.60;;;19.20;;
18206;SDS011;9229;52.354;20.886;2022-09-09T18:03:17;34.55;;;18.77;;
18206;SDS011;9229;52.354;20.886;2022-09-09T18:08:19;35.42;;;18.08;;
18206;SDS011;9229;52.354;20.886;2022-09-09T18:13:21;35.58;;;18.52;;
18206;SDS011;9229;52.354;20.886;2022-09-09T18:18:24;36.25;;;17.30;;
18206;SDS011;9229;52.354;20.886;2022-09-09T18:23:27;31.38;;;17.05;;
18206;SDS011;9229;52.354;20.886;2022-09-09T18:28:30;39.10;;;18.10;;
18206;SDS011;9229;52.354;20.886;2022-09-09T18:33:36;35.78;;;18.70;;
18206;SDS011;9229;52.354;20.886;2022-09-09T18:38:40;36.33;;;17.40;;
18206;SDS011;9229;52.354;20.886;2022-09-09T18:43:42;41.50;;;19.50;;
18206;SDS011;9229;52.354;20.886;2022-09-09T18:48:47;36.10;;;18.23;;
18206;SDS011;9229;52.354;20.886;2022-09-09T18:53:49;34.88;;;17.58;;
18206;SDS011;9229;52.354;20.886;2022-09-09T18:58:54;36.63;;;19.13;;
18206;SDS011;9229;52.354;20.886;2022-09-09T19:03:59;37.47;;;18.10;;
18206;SDS011;9229;52.354;20.886;2022-09-09T19:09:02;35.35;;;17.23;;
18206;SDS011;9229;52.354;20.886;2022-09-09T19:14:05;29.35;;;16.05;;
18206;SDS011;9229;52.354;20.886;2022-09-09T19:19:14;31.13;;;15.52;;
18206;SDS011;9229;52.354;20.886;2022-09-09T19:24:19;30.55;;;16.08;;
18206;SDS011;9229;52.354;20.886;2022-09-09T19:29:23;37.72;;;16.80;;
18206;SDS011;9229;52.354;20.886;2022-09-09T19:34:28;31.35;;;16.70;;
18206;SDS011;9229;52.354;20.886;2022-09-09T19:39:30;33.72;;;17.48;;
18206;SDS011;9229;52.354;20.886;2022-09-09T19:44:33;34.17;;;17.50;;
18206;SDS011;9229;52.354;20.886;2022-09-09T19:49:36;27.65;;;15.82;;
18206;SDS011;9229;52.354;20.886;2022-09-09T19:54:40;32.03;;;16.20;;
18206;SDS011;9229;52.354;20.886;2022-09-09T19:59:42;30.70;;;16.55;;
18206;SDS011;9229;52.354;20.886;2022-09-09T20:04:45;26.73;;;15.70;;
18206;SDS011;9229;52.354;20.886;2022-09-09T20:09:47;30.45;;;15.93;;
18206;SDS011;9229;52.354;20.886;2022-09-09T20:14:49;28.08;;;14.55;;
18206;SDS011;9229;52.354;20.886;2022-09-09T20:19:52;20.98;;;13.65;;
18206;SDS011;9229;52.354;20.886;2022-09-09T20:24:56;24.70;;;14.23;;
18206;SDS011;9229;52.354;20.886;2022-09-09T20:29:58;27.45;;;14.68;;
18206;SDS011;9229;52.354;20.886;2022-09-09T20:35:04;25.58;;;13.90;;
18206;SDS011;9229;52.354;20.886;2022-09-09T20:40:07;24.45;;;13.48;;
18206;SDS011;9229;52.354;20.886;2022-09-09T20:45:09;25.48;;;13.98;;
18206;SDS011;9229;52.354;20.886;2022-09-09T20:50:17;29.25;;;14.88;;
18206;SDS011;9229;52.354;20.886;2022-09-09T20:55:19;20.02;;;13.00;;
18206;SDS011;9229;52.354;20.886;2022-09-09T21:00:20;23.85;;;14.85;;
18206;SDS011;9229;52.354;20.886;2022-09-09T21:05:24;24.45;;;13.30;;
18206;SDS011;9229;52.354;20.886;2022-09-09T21:10:27;24.05;;;13.10;;
18206;SDS011;9229;52.354;20.886;2022-09-09T21:15:31;22.48;;;13.75;;
18206;SDS011;9229;52.354;20.886;2022-09-09T21:20:34;25.52;;;14.13;;
18206;SDS011;9229;52.354;20.886;2022-09-09T21:25:37;25.35;;;15.25;;
18206;SDS011;9229;52.354;20.886;2022-09-09T21:30:39;21.30;;;13.68;;
18206;SDS011;9229;52.354;20.886;2022-09-09T21:35:42;22.30;;;14.30;;
18206;SDS011;9229;52.354;20.886;2022-09-09T21:40:45;29.88;;;15.75;;
18206;SDS011;9229;52.354;20.886;2022-09-09T21:45:49;25.15;;;14.23;;
18206;SDS011;9229;52.354;20.886;2022-09-09T21:50:52;22.33;;;13.38;;
18206;SDS011;9229;52.354;20.886;2022-09-09T21:56:01;27.73;;;15.27;;
18206;SDS011;9229;52.354;20.886;2022-09-09T22:01:07;23.80;;;13.65;;
18206;SDS011;9229;52.354;20.886;2022-09-09T22:06:13;22.40;;;13.65;;
18206;SDS011;9229;52.354;20.886;2022-09-09T22:11:17;22.67;;;12.95;;
18206;SDS011;9229;52.354;20.886;2022-09-09T22:16:21;21.15;;;13.95;;
18206;SDS011;9229;52.354;20.886;2022-09-09T22:21:26;20.52;;;12.82;;
18206;SDS011;9229;52.354;20.886;2022-09-09T22:26:30;23.10;;;13.23;;
18206;SDS011;9229;52.354;20.886;2022-09-09T22:31:33;20.95;;;12.80;;
18206;SDS011;9229;52.354;20.886;2022-09-09T22:36:37;20.52;;;13.57;;
18206;SDS011;9229;52.354;20.886;2022-09-09T22:41:39;25.70;;;14.60;;
18206;SDS011;9229;52.354;20.886;2022-09-09T22:46:41;21.65;;;13.32;;
18206;SDS011;9229;52.354;20.886;2022-09-09T22:51:46;19.63;;;11.88;;
18206;SDS011;9229;52.354;20.886;2022-09-09T22:56:49;21.23;;;12.77;;
18206;SDS011;9229;52.354;20.886;2022-09-09T23:01:51;20.63;;;12.35;;
18206;SDS011;9229;52.354;20.886;2022-09-09T23:06:59;15.88;;;11.38;;
18206;SDS011;9229;52.354;20.886;2022-09-09T23:12:02;15.57;;;10.82;;
18206;SDS011;9229;52.354;20.886;2022-09-09T23:17:05;14.63;;;10.10;;
18206;SDS011;9229;52.354;20.886;2022-09-09T23:22:09;16.67;;;11.27;;
18206;SDS011;9229;52.354;20.886;2022-09-09T23:27:11;14.63;;;10.70;;
18206;SDS011;9229;52.354;20.886;2022-09-09T23:32:13;14.85;;;9.85;;
18206;SDS011;9229;52.354;20.886;2022-09-09T23:37:18;17.30;;;10.30;;
18206;SDS011;9229;52.354;20.886;2022-09-09T23:42:19;14.93;;;9.55;;
18206;SDS011;9229;52.354;20.886;2022-09-09T23:47:22;18.23;;;10.95;;
18206;SDS011;9229;52.354;20.886;2022-09-09T23:52:26;16.15;;;10.27;;
18206;SDS011;9229;52.354;20.886;2022-09-09T23:57:28;18.50;;;10.30;;
